sensor_id;sensor_type;location;lat;lon;timestamp;P1;durP1;ratioP1;P2;durP2;ratioP2
27223;SDS011;14965;50.660;13.226;2023-11-22T00:02:02;30.27;;;15.90;;
27223;SDS011;14965;50.660;13.226;2023-11-22T00:04:28;26.67;;;15.63;;
27223;SDS011;14965;50.660;13.226;2023-11-22T00:06:54;45.00;;;17.50;;
27223;SDS011;14965;50.660;13.226;2023-11-22T00:09:20;26.40;;;16.05;;
27223;SDS011;14965;50.660;13.226;2023-11-22T00:11:46;77.57;;;17.13;;
27223;SDS011;14965;50.660;13.226;2023-11-22T00:14:14;49.58;;;19.15;;
27223;SDS011;14965;50.660;13.226;2023-11-22T00:16:40;109.63;;;21.58;;
27223;SDS011;14965;50.660;13.226;2023-11-22T00:19:06;49.40;;;18.98;;
27223;SDS011;14965;50.660;13.226;2023-11-22T00:21:32;32.05;;;17.63;;
27223;SDS011;14965;50.660;13.226;2023-11-22T00:23:58;30.33;;;17.23;;
27223;SDS011;14965;50.660;13.226;2023-11-22T00:26:24;28.35;;;15.13;;
27223;SDS011;14965;50.660;13.226;2023-11-22T00:28:50;33.88;;;17.02;;
27223;SDS011;14965;50.660;13.226;2023-11-22T00:31:17;39.15;;;17.70;;
27223;SDS011;14965;50.660;13.226;2023-11-22T00:33:43;37.05;;;19.35;;
27223;SDS011;14965;50.660;13.226;2023-11-22T00:36:09;75.97;;;19.88;;
27223;SDS011;14965;50.660;13.226;2023-11-22T00:38:35;40.65;;;18.52;;
27223;SDS011;14965;50.660;13.226;2023-11-22T00:41:01;50.40;;;19.65;;
27223;SDS011;14965;50.660;13.226;2023-11-22T00:43:27;74.57;;;21.35;;
27223;SDS011;14965;50.660;13.226;2023-11-22T00:45:53;69.78;;;21.42;;
27223;SDS011;14965;50.660;13.226;2023-11-22T00:48:20;90.22;;;22.33;;
27223;SDS011;14965;50.660;13.226;2023-11-22T00:50:46;61.50;;;22.50;;
27223;SDS011;14965;50.660;13.226;2023-11-22T00:53:12;180.75;;;26.67;;
27223;SDS011;14965;50.660;13.226;2023-11-22T00:55:38;123.15;;;24.13;;
27223;SDS011;14965;50.660;13.226;2023-11-22T00:58:04;187.23;;;23.83;;
27223;SDS011;14965;50.660;13.226;2023-11-22T01:00:30;122.45;;;25.45;;
27223;SDS011;14965;50.660;13.226;2023-11-22T01:02:56;61.72;;;24.60;;
27223;SDS011;14965;50.660;13.226;2023-11-22T01:05:23;256.85;;;25.58;;
27223;SDS011;14965;50.660;13.226;2023-11-22T01:07:49;202.95;;;30.10;;
27223;SDS011;14965;50.660;13.226;2023-11-22T01:10:15;286.77;;;28.95;;
27223;SDS011;14965;50.660;13.226;2023-11-22T01:12:41;405.42;;;29.88;;
27223;SDS011;14965;50.660;13.226;2023-11-22T01:15:08;232.85;;;26.58;;
27223;SDS011;14965;50.660;13.226;2023-11-22T01:17:34;239.80;;;30.13;;
27223;SDS011;14965;50.660;13.226;2023-11-22T01:20:01;189.02;;;27.25;;
27223;SDS011;14965;50.660;13.226;2023-11-22T01:22:29;61.15;;;22.20;;
27223;SDS011;14965;50.660;13.226;2023-11-22T01:24:55;72.88;;;23.20;;
27223;SDS011;14965;50.660;13.226;2023-11-22T01:27:21;113.93;;;24.73;;
27223;SDS011;14965;50.660;13.226;2023-11-22T01:29:47;101.03;;;26.17;;
27223;SDS011;14965;50.660;13.226;2023-11-22T01:32:13;168.02;;;27.00;;
27223;SDS011;14965;50.660;13.226;2023-11-22T01:34:39;313.27;;;29.83;;
27223;SDS011;14965;50.660;13.226;2023-11-22T01:37:05;116.60;;;27.00;;
27223;SDS011;14965;50.660;13.226;2023-11-22T01:39:32;274.73;;;29.52;;
27223;SDS011;14965;50.660;13.226;2023-11-22T01:41:58;418.35;;;34.88;;
27223;SDS011;14965;50.660;13.226;2023-11-22T01:44:24;353.23;;;32.78;;
27223;SDS011;14965;50.660;13.226;2023-11-22T01:46:50;370.25;;;32.60;;
27223;SDS011;14965;50.660;13.226;2023-11-22T01:49:16;343.88;;;31.95;;
27223;SDS011;14965;50.660;13.226;2023-11-22T01:51:43;478.92;;;35.53;;
27223;SDS011;14965;50.660;13.226;2023-11-22T01:54:10;197.32;;;28.05;;
27223;SDS011;14965;50.660;13.226;2023-11-22T01:56:38;245.60;;;29.30;;
27223;SDS011;14965;50.660;13.226;2023-11-22T01:59:04;104.45;;;25.75;;
27223;SDS011;14965;50.660;13.226;2023-11-22T02:01:31;115.38;;;26.20;;
27223;SDS011;14965;50.660;13.226;2023-11-22T02:03:57;106.60;;;23.17;;
27223;SDS011;14965;50.660;13.226;2023-11-22T02:06:23;69.80;;;23.20;;
27223;SDS011;14965;50.660;13.226;2023-11-22T02:08:50;79.68;;;23.25;;
27223;SDS011;14965;50.660;13.226;2023-11-22T02:11:17;67.85;;;23.70;;
27223;SDS011;14965;50.660;13.226;2023-11-22T02:13:45;46.33;;;22.13;;
27223;SDS011;14965;50.660;13.226;2023-11-22T02:16:11;93.18;;;22.50;;
27223;SDS011;14965;50.660;13.226;2023-11-22T02:18:37;62.83;;;24.88;;
27223;SDS011;14965;50.660;13.226;2023-11-22T02:21:03;72.07;;;23.35;;
27223;SDS011;14965;50.660;13.226;2023-11-22T02:23:30;56.00;;;24.05;;
27223;SDS011;14965;50.660;13.226;2023-11-22T02:25:56;51.40;;;22.88;;
27223;SDS011;14965;50.660;13.226;2023-11-22T02:28:22;61.92;;;23.08;;
27223;SDS011;14965;50.660;13.226;2023-11-22T02:30:48;49.97;;;21.50;;
27223;SDS011;14965;50.660;13.226;2023-11-22T02:33:14;48.80;;;21.83;;
27223;SDS011;14965;50.660;13.226;2023-11-22T02:35:40;48.95;;;22.27;;
27223;SDS011;14965;50.660;13.226;2023-11-22T02:38:06;36.47;;;18.95;;
27223;SDS011;14965;50.660;13.226;2023-11-22T02:40:33;31.17;;;16.08;;
27223;SDS011;14965;50.660;13.226;2023-11-22T02:42:59;32.17;;;15.93;;
27223;SDS011;14965;50.660;13.226;2023-11-22T02:45:26;36.45;;;16.75;;
27223;SDS011;14965;50.660;13.226;2023-11-22T02:47:53;30.35;;;15.82;;
27223;SDS011;14965;50.660;13.226;2023-11-22T02:50:20;36.58;;;17.33;;
27223;SDS011;14965;50.660;13.226;2023-11-22T02:52:46;34.17;;;16.85;;
27223;SDS011;14965;50.660;13.226;2023-11-22T02:55:12;35.45;;;17.15;;
27223;SDS011;14965;50.660;13.226;2023-11-22T02:57:40;42.13;;;18.98;;
27223;SDS011;14965;50.660;13.226;2023-11-22T03:00:06;44.03;;;19.95;;
27223;SDS011;14965;50.660;13.226;2023-11-22T03:02:34;46.00;;;20.38;;
27223;SDS011;14965;50.660;13.226;2023-11-22T03:05:00;44.78;;;19.88;;
27223;SDS011;14965;50.660;13.226;2023-11-22T03:07:26;45.30;;;20.85;;
27223;SDS011;14965;50.660;13.226;2023-11-22T03:09:52;63.22;;;21.77;;
27223;SDS011;14965;50.660;13.226;2023-11-22T03:12:19;59.10;;;22.60;;
27223;SDS011;14965;50.660;13.226;2023-11-22T03:14:46;55.45;;;23.88;;
27223;SDS011;14965;50.660;13.226;2023-11-22T03:17:14;60.88;;;25.17;;
27223;SDS011;14965;50.660;13.226;2023-11-22T03:19:40;60.55;;;24.75;;
27223;SDS011;14965;50.660;13.226;2023-11-22T03:22:06;130.02;;;25.00;;
27223;SDS011;14965;50.660;13.226;2023-11-22T03:24:32;83.75;;;25.02;;
27223;SDS011;14965;50.660;13.226;2023-11-22T03:26:58;113.63;;;24.90;;
27223;SDS011;14965;50.660;13.226;2023-11-22T03:29:25;109.85;;;24.90;;
27223;SDS011;14965;50.660;13.226;2023-11-22T03:31:52;95.70;;;24.30;;
27223;SDS011;14965;50.660;13.226;2023-11-22T03:34:18;82.78;;;25.70;;
27223;SDS011;14965;50.660;13.226;2023-11-22T03:36:44;183.95;;;26.90;;
27223;SDS011;14965;50.660;13.226;2023-11-22T03:39:10;135.18;;;23.98;;
27223;SDS011;14965;50.660;13.226;2023-11-22T03:41:37;252.40;;;28.23;;
27223;SDS011;14965;50.660;13.226;2023-11-22T03:44:03;74.38;;;24.83;;
27223;SDS011;14965;50.660;13.226;2023-11-22T03:46:31;82.13;;;26.77;;
27223;SDS011;14965;50.660;13.226;2023-11-22T03:48:58;80.30;;;24.83;;
27223;SDS011;14965;50.660;13.226;2023-11-22T03:51:24;51.72;;;23.30;;
27223;SDS011;14965;50.660;13.226;2023-11-22T03:53:50;54.42;;;23.30;;
27223;SDS011;14965;50.660;13.226;2023-11-22T03:56:16;48.33;;;22.40;;
27223;SDS011;14965;50.660;13.226;2023-11-22T03:58:42;45.88;;;21.08;;
27223;SDS011;14965;50.660;13.226;2023-11-22T04:01:08;42.15;;;19.90;;
27223;SDS011;14965;50.660;13.226;2023-11-22T04:03:34;45.33;;;20.73;;
27223;SDS011;14965;50.660;13.226;2023-11-22T04:06:01;48.85;;;22.60;;
27223;SDS011;14965;50.660;13.226;2023-11-22T04:08:27;79.25;;;25.05;;
27223;SDS011;14965;50.660;13.226;2023-11-22T04:10:53;73.97;;;23.90;;
27223;SDS011;14965;50.660;13.226;2023-11-22T04:13:19;60.88;;;24.15;;
27223;SDS011;14965;50.660;13.226;2023-11-22T04:15:45;120.43;;;25.48;;
27223;SDS011;14965;50.660;13.226;2023-11-22T04:18:11;86.78;;;27.33;;
27223;SDS011;14965;50.660;13.226;2023-11-22T04:20:37;134.55;;;27.27;;
27223;SDS011;14965;50.660;13.226;2023-11-22T04:23:04;88.80;;;28.58;;
27223;SDS011;14965;50.660;13.226;2023-11-22T04:25:30;97.82;;;28.20;;
27223;SDS011;14965;50.660;13.226;2023-11-22T04:27:56;164.27;;;28.65;;
27223;SDS011;14965;50.660;13.226;2023-11-22T04:30:22;79.75;;;26.42;;
27223;SDS011;14965;50.660;13.226;2023-11-22T04:32:48;79.25;;;29.15;;
27223;SDS011;14965;50.660;13.226;2023-11-22T04:35:14;120.43;;;29.65;;
27223;SDS011;14965;50.660;13.226;2023-11-22T04:37:40;56.05;;;25.50;;
27223;SDS011;14965;50.660;13.226;2023-11-22T04:40:08;106.50;;;28.67;;
27223;SDS011;14965;50.660;13.226;2023-11-22T04:42:36;78.47;;;28.60;;
27223;SDS011;14965;50.660;13.226;2023-11-22T04:45:03;65.43;;;25.88;;
27223;SDS011;14965;50.660;13.226;2023-11-22T04:47:29;395.45;;;34.95;;
27223;SDS011;14965;50.660;13.226;2023-11-22T04:49:55;90.25;;;30.23;;
27223;SDS011;14965;50.660;13.226;2023-11-22T04:52:21;169.15;;;29.73;;
27223;SDS011;14965;50.660;13.226;2023-11-22T04:54:47;122.32;;;29.05;;
27223;SDS011;14965;50.660;13.226;2023-11-22T04:57:14;188.18;;;30.05;;
27223;SDS011;14965;50.660;13.226;2023-11-22T04:59:40;203.50;;;31.17;;
27223;SDS011;14965;50.660;13.226;2023-11-22T05:02:06;213.93;;;28.73;;
27223;SDS011;14965;50.660;13.226;2023-11-22T05:04:32;189.77;;;30.27;;
27223;SDS011;14965;50.660;13.226;2023-11-22T05:06:58;143.55;;;29.85;;
27223;SDS011;14965;50.660;13.226;2023-11-22T05:09:24;221.38;;;31.55;;
27223;SDS011;14965;50.660;13.226;2023-11-22T05:11:50;231.32;;;31.35;;
27223;SDS011;14965;50.660;13.226;2023-11-22T05:14:17;125.90;;;29.05;;
27223;SDS011;14965;50.660;13.226;2023-11-22T05:16:43;101.30;;;30.25;;
27223;SDS011;14965;50.660;13.226;2023-11-22T05:19:09;147.75;;;31.00;;
27223;SDS011;14965;50.660;13.226;2023-11-22T05:21:35;226.80;;;30.60;;
27223;SDS011;14965;50.660;13.226;2023-11-22T05:24:01;83.03;;;28.00;;
27223;SDS011;14965;50.660;13.226;2023-11-22T05:26:27;248.75;;;31.88;;
27223;SDS011;14965;50.660;13.226;2023-11-22T05:28:53;133.88;;;29.35;;
27223;SDS011;14965;50.660;13.226;2023-11-22T05:31:20;330.02;;;31.60;;
27223;SDS011;14965;50.660;13.226;2023-11-22T05:33:47;326.55;;;32.78;;
27223;SDS011;14965;50.660;13.226;2023-11-22T05:36:12;359.48;;;32.65;;
27223;SDS011;14965;50.660;13.226;2023-11-22T05:38:38;322.77;;;32.65;;
27223;SDS011;14965;50.660;13.226;2023-11-22T05:41:05;141.77;;;28.70;;
27223;SDS011;14965;50.660;13.226;2023-11-22T05:43:31;102.65;;;28.60;;
27223;SDS011;14965;50.660;13.226;2023-11-22T05:45:57;147.48;;;29.20;;
27223;SDS011;14965;50.660;13.226;2023-11-22T05:48:24;125.47;;;26.50;;
27223;SDS011;14965;50.660;13.226;2023-11-22T05:50:50;117.13;;;25.67;;
27223;SDS011;14965;50.660;13.226;2023-11-22T05:53:16;137.55;;;27.95;;
27223;SDS011;14965;50.660;13.226;2023-11-22T05:55:42;81.93;;;28.17;;
27223;SDS011;14965;50.660;13.226;2023-11-22T05:58:08;106.95;;;28.05;;
27223;SDS011;14965;50.660;13.226;2023-11-22T06:00:34;84.15;;;28.63;;
27223;SDS011;14965;50.660;13.226;2023-11-22T06:03:00;135.90;;;26.58;;
27223;SDS011;14965;50.660;13.226;2023-11-22T06:05:27;83.55;;;27.15;;
27223;SDS011;14965;50.660;13.226;2023-11-22T06:07:53;89.60;;;25.83;;
27223;SDS011;14965;50.660;13.226;2023-11-22T06:10:19;80.18;;;25.65;;
27223;SDS011;14965;50.660;13.226;2023-11-22T06:12:45;188.40;;;29.45;;
27223;SDS011;14965;50.660;13.226;2023-11-22T06:15:11;163.90;;;27.25;;
27223;SDS011;14965;50.660;13.226;2023-11-22T06:17:37;182.70;;;28.20;;
27223;SDS011;14965;50.660;13.226;2023-11-22T06:20:03;189.02;;;27.85;;
27223;SDS011;14965;50.660;13.226;2023-11-22T06:22:32;228.93;;;30.17;;
27223;SDS011;14965;50.660;13.226;2023-11-22T06:24:58;317.30;;;30.73;;
27223;SDS011;14965;50.660;13.226;2023-11-22T06:27:24;321.20;;;31.42;;
27223;SDS011;14965;50.660;13.226;2023-11-22T06:29:50;385.23;;;30.48;;
27223;SDS011;14965;50.660;13.226;2023-11-22T06:32:15;207.35;;;29.55;;
27223;SDS011;14965;50.660;13.226;2023-11-22T06:34:41;292.70;;;29.15;;
27223;SDS011;14965;50.660;13.226;2023-11-22T06:37:07;289.30;;;31.10;;
27223;SDS011;14965;50.660;13.226;2023-11-22T06:39:34;195.50;;;28.55;;
27223;SDS011;14965;50.660;13.226;2023-11-22T06:42:01;124.93;;;28.13;;
27223;SDS011;14965;50.660;13.226;2023-11-22T06:44:27;129.02;;;29.35;;
27223;SDS011;14965;50.660;13.226;2023-11-22T06:46:52;92.95;;;26.70;;
27223;SDS011;14965;50.660;13.226;2023-11-22T06:49:18;65.32;;;25.30;;
27223;SDS011;14965;50.660;13.226;2023-11-22T06:51:44;73.30;;;26.60;;
27223;SDS011;14965;50.660;13.226;2023-11-22T06:54:10;73.55;;;27.00;;
27223;SDS011;14965;50.660;13.226;2023-11-22T06:56:37;65.40;;;26.38;;
27223;SDS011;14965;50.660;13.226;2023-11-22T06:59:03;106.82;;;28.33;;
27223;SDS011;14965;50.660;13.226;2023-11-22T07:01:29;68.25;;;26.35;;
27223;SDS011;14965;50.660;13.226;2023-11-22T07:03:55;81.63;;;26.80;;
27223;SDS011;14965;50.660;13.226;2023-11-22T07:06:21;89.07;;;26.20;;
27223;SDS011;14965;50.660;13.226;2023-11-22T07:08:47;82.95;;;25.85;;
27223;SDS011;14965;50.660;13.226;2023-11-22T07:11:18;92.20;;;27.60;;
27223;SDS011;14965;50.660;13.226;2023-11-22T07:13:48;91.80;;;28.27;;
27223;SDS011;14965;50.660;13.226;2023-11-22T07:16:14;71.43;;;26.67;;
27223;SDS011;14965;50.660;13.226;2023-11-22T07:18:40;70.53;;;25.25;;
27223;SDS011;14965;50.660;13.226;2023-11-22T07:21:06;115.32;;;30.00;;
27223;SDS011;14965;50.660;13.226;2023-11-22T07:23:32;134.00;;;29.23;;
27223;SDS011;14965;50.660;13.226;2023-11-22T07:25:58;158.48;;;29.52;;
27223;SDS011;14965;50.660;13.226;2023-11-22T07:28:23;127.22;;;28.13;;
27223;SDS011;14965;50.660;13.226;2023-11-22T07:30:51;190.73;;;31.33;;
27223;SDS011;14965;50.660;13.226;2023-11-22T07:33:17;165.38;;;31.08;;
27223;SDS011;14965;50.660;13.226;2023-11-22T07:35:43;75.80;;;27.45;;
27223;SDS011;14965;50.660;13.226;2023-11-22T07:38:09;101.68;;;31.92;;
27223;SDS011;14965;50.660;13.226;2023-11-22T07:40:34;56.60;;;25.20;;
27223;SDS011;14965;50.660;13.226;2023-11-22T07:43:00;61.10;;;25.65;;
27223;SDS011;14965;50.660;13.226;2023-11-22T07:45:26;56.45;;;24.88;;
27223;SDS011;14965;50.660;13.226;2023-11-22T07:47:54;50.10;;;22.15;;
27223;SDS011;14965;50.660;13.226;2023-11-22T07:50:20;60.95;;;23.88;;
27223;SDS011;14965;50.660;13.226;2023-11-22T07:52:46;49.03;;;23.15;;
27223;SDS011;14965;50.660;13.226;2023-11-22T07:55:12;42.05;;;19.00;;
27223;SDS011;14965;50.660;13.226;2023-11-22T07:57:38;44.25;;;19.83;;
27223;SDS011;14965;50.660;13.226;2023-11-22T08:00:04;45.47;;;19.92;;
27223;SDS011;14965;50.660;13.226;2023-11-22T08:02:31;45.28;;;20.95;;
27223;SDS011;14965;50.660;13.226;2023-11-22T08:04:59;41.42;;;19.35;;
27223;SDS011;14965;50.660;13.226;2023-11-22T08:07:25;40.22;;;19.35;;
27223;SDS011;14965;50.660;13.226;2023-11-22T08:09:51;40.05;;;18.92;;
27223;SDS011;14965;50.660;13.226;2023-11-22T08:12:16;38.92;;;18.73;;
27223;SDS011;14965;50.660;13.226;2023-11-22T08:14:42;39.13;;;18.92;;
27223;SDS011;14965;50.660;13.226;2023-11-22T08:17:08;39.45;;;19.08;;
27223;SDS011;14965;50.660;13.226;2023-11-22T08:19:34;44.35;;;20.50;;
27223;SDS011;14965;50.660;13.226;2023-11-22T08:22:02;43.42;;;20.38;;
27223;SDS011;14965;50.660;13.226;2023-11-22T08:24:28;44.85;;;20.17;;
27223;SDS011;14965;50.660;13.226;2023-11-22T08:26:54;41.78;;;20.05;;
27223;SDS011;14965;50.660;13.226;2023-11-22T08:29:20;38.28;;;19.20;;
27223;SDS011;14965;50.660;13.226;2023-11-22T08:31:46;38.30;;;20.17;;
27223;SDS011;14965;50.660;13.226;2023-11-22T08:34:12;44.38;;;21.33;;
27223;SDS011;14965;50.660;13.226;2023-11-22T08:36:38;50.13;;;22.38;;
27223;SDS011;14965;50.660;13.226;2023-11-22T08:39:05;41.83;;;20.75;;
27223;SDS011;14965;50.660;13.226;2023-11-22T08:41:32;44.47;;;20.95;;
27223;SDS011;14965;50.660;13.226;2023-11-22T08:43:58;37.75;;;19.58;;
27223;SDS011;14965;50.660;13.226;2023-11-22T08:46:24;42.72;;;20.30;;
27223;SDS011;14965;50.660;13.226;2023-11-22T08:48:51;41.47;;;20.80;;
27223;SDS011;14965;50.660;13.226;2023-11-22T08:51:17;37.85;;;19.38;;
27223;SDS011;14965;50.660;13.226;2023-11-22T08:53:43;39.78;;;21.52;;
27223;SDS011;14965;50.660;13.226;2023-11-22T08:56:10;40.78;;;19.98;;
27223;SDS011;14965;50.660;13.226;2023-11-22T08:58:37;39.17;;;18.80;;
27223;SDS011;14965;50.660;13.226;2023-11-22T09:01:03;41.20;;;20.48;;
27223;SDS011;14965;50.660;13.226;2023-11-22T09:03:30;46.88;;;23.00;;
27223;SDS011;14965;50.660;13.226;2023-11-22T09:05:56;49.55;;;23.52;;
27223;SDS011;14965;50.660;13.226;2023-11-22T09:08:22;45.35;;;21.50;;
27223;SDS011;14965;50.660;13.226;2023-11-22T09:10:48;44.20;;;21.63;;
27223;SDS011;14965;50.660;13.226;2023-11-22T09:13:16;43.55;;;21.75;;
27223;SDS011;14965;50.660;13.226;2023-11-22T09:15:42;41.30;;;20.85;;
27223;SDS011;14965;50.660;13.226;2023-11-22T09:18:08;43.35;;;21.77;;
27223;SDS011;14965;50.660;13.226;2023-11-22T09:20:34;42.20;;;21.00;;
27223;SDS011;14965;50.660;13.226;2023-11-22T09:23:00;46.33;;;23.40;;
27223;SDS011;14965;50.660;13.226;2023-11-22T09:25:26;48.65;;;24.40;;
27223;SDS011;14965;50.660;13.226;2023-11-22T09:27:53;45.35;;;23.02;;
27223;SDS011;14965;50.660;13.226;2023-11-22T09:30:22;49.67;;;25.83;;
27223;SDS011;14965;50.660;13.226;2023-11-22T09:32:50;55.60;;;28.33;;
27223;SDS011;14965;50.660;13.226;2023-11-22T09:35:16;43.95;;;21.30;;
27223;SDS011;14965;50.660;13.226;2023-11-22T09:37:42;43.88;;;22.00;;
27223;SDS011;14965;50.660;13.226;2023-11-22T09:40:08;40.53;;;20.45;;
27223;SDS011;14965;50.660;13.226;2023-11-22T09:42:36;85.65;;;39.03;;
27223;SDS011;14965;50.660;13.226;2023-11-22T09:45:02;64.60;;;32.25;;
27223;SDS011;14965;50.660;13.226;2023-11-22T09:47:32;42.83;;;21.70;;
27223;SDS011;14965;50.660;13.226;2023-11-22T09:49:58;40.15;;;20.45;;
27223;SDS011;14965;50.660;13.226;2023-11-22T09:54:55;44.00;;;20.67;;
27223;SDS011;14965;50.660;13.226;2023-11-22T09:57:21;44.42;;;21.98;;
27223;SDS011;14965;50.660;13.226;2023-11-22T09:59:49;46.13;;;22.05;;
27223;SDS011;14965;50.660;13.226;2023-11-22T10:02:20;47.60;;;23.95;;
27223;SDS011;14965;50.660;13.226;2023-11-22T10:07:17;45.75;;;22.55;;
27223;SDS011;14965;50.660;13.226;2023-11-22T10:09:42;49.60;;;24.40;;
27223;SDS011;14965;50.660;13.226;2023-11-22T10:12:08;53.72;;;24.88;;
27223;SDS011;14965;50.660;13.226;2023-11-22T10:14:37;55.75;;;25.83;;
27223;SDS011;14965;50.660;13.226;2023-11-22T10:17:03;57.67;;;26.15;;
27223;SDS011;14965;50.660;13.226;2023-11-22T10:19:29;61.85;;;27.42;;
27223;SDS011;14965;50.660;13.226;2023-11-22T10:22:03;58.63;;;26.60;;
27223;SDS011;14965;50.660;13.226;2023-11-22T10:24:31;65.72;;;28.27;;
27223;SDS011;14965;50.660;13.226;2023-11-22T10:26:57;59.88;;;27.23;;
27223;SDS011;14965;50.660;13.226;2023-11-22T10:29:24;51.78;;;25.20;;
27223;SDS011;14965;50.660;13.226;2023-11-22T10:31:50;48.70;;;24.35;;
27223;SDS011;14965;50.660;13.226;2023-11-22T10:34:18;55.90;;;24.98;;
27223;SDS011;14965;50.660;13.226;2023-11-22T10:36:44;63.78;;;28.27;;
27223;SDS011;14965;50.660;13.226;2023-11-22T10:39:13;62.50;;;25.98;;
27223;SDS011;14965;50.660;13.226;2023-11-22T10:41:43;65.22;;;27.52;;
27223;SDS011;14965;50.660;13.226;2023-11-22T10:44:11;54.63;;;25.63;;
27223;SDS011;14965;50.660;13.226;2023-11-22T10:46:37;58.45;;;25.88;;
27223;SDS011;14965;50.660;13.226;2023-11-22T10:49:04;60.03;;;26.08;;
27223;SDS011;14965;50.660;13.226;2023-11-22T10:51:31;56.88;;;26.13;;
27223;SDS011;14965;50.660;13.226;2023-11-22T10:53:59;59.00;;;28.00;;
27223;SDS011;14965;50.660;13.226;2023-11-22T10:56:27;60.00;;;25.15;;
27223;SDS011;14965;50.660;13.226;2023-11-22T10:59:01;54.70;;;24.92;;
27223;SDS011;14965;50.660;13.226;2023-11-22T11:01:34;62.63;;;27.33;;
27223;SDS011;14965;50.660;13.226;2023-11-22T11:04:03;67.07;;;26.90;;
27223;SDS011;14965;50.660;13.226;2023-11-22T11:06:35;58.05;;;26.92;;
27223;SDS011;14965;50.660;13.226;2023-11-22T11:09:02;76.68;;;29.13;;
27223;SDS011;14965;50.660;13.226;2023-11-22T11:11:31;73.50;;;27.43;;
27223;SDS011;14965;50.660;13.226;2023-11-22T11:13:58;101.82;;;28.00;;
27223;SDS011;14965;50.660;13.226;2023-11-22T11:16:27;74.72;;;28.95;;
27223;SDS011;14965;50.660;13.226;2023-11-22T11:18:55;62.63;;;27.90;;
27223;SDS011;14965;50.660;13.226;2023-11-22T11:21:21;65.03;;;28.05;;
27223;SDS011;14965;50.660;13.226;2023-11-22T11:23:47;79.63;;;29.65;;
27223;SDS011;14965;50.660;13.226;2023-11-22T11:26:18;71.38;;;28.05;;
27223;SDS011;14965;50.660;13.226;2023-11-22T11:28:47;78.60;;;26.48;;
27223;SDS011;14965;50.660;13.226;2023-11-22T11:31:15;64.03;;;31.00;;
27223;SDS011;14965;50.660;13.226;2023-11-22T11:33:54;56.20;;;26.25;;
27223;SDS011;14965;50.660;13.226;2023-11-22T11:36:23;75.97;;;28.95;;
27223;SDS011;14965;50.660;13.226;2023-11-22T11:38:51;66.15;;;27.33;;
27223;SDS011;14965;50.660;13.226;2023-11-22T11:41:18;69.78;;;29.48;;
27223;SDS011;14965;50.660;13.226;2023-11-22T11:43:44;63.15;;;27.25;;
27223;SDS011;14965;50.660;13.226;2023-11-22T11:46:14;57.88;;;25.70;;
27223;SDS011;14965;50.660;13.226;2023-11-22T11:48:44;70.47;;;27.70;;
27223;SDS011;14965;50.660;13.226;2023-11-22T11:51:13;65.82;;;28.55;;
27223;SDS011;14965;50.660;13.226;2023-11-22T11:53:40;66.55;;;28.65;;
27223;SDS011;14965;50.660;13.226;2023-11-22T11:56:06;54.70;;;25.23;;
27223;SDS011;14965;50.660;13.226;2023-11-22T11:58:34;69.37;;;30.77;;
27223;SDS011;14965;50.660;13.226;2023-11-22T12:01:01;60.08;;;27.50;;
27223;SDS011;14965;50.660;13.226;2023-11-22T12:03:27;54.28;;;25.45;;
27223;SDS011;14965;50.660;13.226;2023-11-22T12:05:53;54.60;;;25.25;;
27223;SDS011;14965;50.660;13.226;2023-11-22T12:08:19;53.80;;;24.90;;
27223;SDS011;14965;50.660;13.226;2023-11-22T12:10:45;50.85;;;23.35;;
27223;SDS011;14965;50.660;13.226;2023-11-22T12:13:11;50.25;;;23.15;;
27223;SDS011;14965;50.660;13.226;2023-11-22T12:15:37;45.15;;;21.50;;
27223;SDS011;14965;50.660;13.226;2023-11-22T12:18:05;40.22;;;20.20;;
27223;SDS011;14965;50.660;13.226;2023-11-22T12:20:31;48.20;;;21.55;;
27223;SDS011;14965;50.660;13.226;2023-11-22T12:22:57;56.67;;;25.83;;
27223;SDS011;14965;50.660;13.226;2023-11-22T12:25:25;67.38;;;30.02;;
27223;SDS011;14965;50.660;13.226;2023-11-22T12:27:53;55.15;;;25.67;;
27223;SDS011;14965;50.660;13.226;2023-11-22T12:30:29;51.63;;;25.17;;
27223;SDS011;14965;50.660;13.226;2023-11-22T12:32:56;46.80;;;23.23;;
27223;SDS011;14965;50.660;13.226;2023-11-22T12:35:27;53.72;;;22.77;;
27223;SDS011;14965;50.660;13.226;2023-11-22T12:37:53;63.13;;;25.83;;
27223;SDS011;14965;50.660;13.226;2023-11-22T12:40:20;56.88;;;26.00;;
27223;SDS011;14965;50.660;13.226;2023-11-22T12:42:49;47.13;;;23.52;;
27223;SDS011;14965;50.660;13.226;2023-11-22T12:45:19;56.03;;;24.73;;
27223;SDS011;14965;50.660;13.226;2023-11-22T12:47:46;61.80;;;26.15;;
27223;SDS011;14965;50.660;13.226;2023-11-22T12:53:00;59.03;;;25.95;;
27223;SDS011;14965;50.660;13.226;2023-11-22T12:55:34;61.40;;;26.42;;
27223;SDS011;14965;50.660;13.226;2023-11-22T12:58:00;78.60;;;36.50;;
27223;SDS011;14965;50.660;13.226;2023-11-22T13:00:26;81.85;;;40.47;;
27223;SDS011;14965;50.660;13.226;2023-11-22T13:02:52;56.00;;;28.40;;
27223;SDS011;14965;50.660;13.226;2023-11-22T13:05:18;51.38;;;23.75;;
27223;SDS011;14965;50.660;13.226;2023-11-22T13:07:45;55.03;;;23.65;;
27223;SDS011;14965;50.660;13.226;2023-11-22T13:10:11;44.95;;;20.77;;
27223;SDS011;14965;50.660;13.226;2023-11-22T13:12:37;46.35;;;22.63;;
27223;SDS011;14965;50.660;13.226;2023-11-22T13:15:03;45.15;;;21.23;;
27223;SDS011;14965;50.660;13.226;2023-11-22T13:17:32;46.95;;;21.73;;
27223;SDS011;14965;50.660;13.226;2023-11-22T13:19:58;42.42;;;20.63;;
27223;SDS011;14965;50.660;13.226;2023-11-22T13:22:24;45.47;;;22.80;;
27223;SDS011;14965;50.660;13.226;2023-11-22T13:24:51;45.08;;;21.70;;
27223;SDS011;14965;50.660;13.226;2023-11-22T13:27:17;47.85;;;21.67;;
27223;SDS011;14965;50.660;13.226;2023-11-22T13:29:43;46.85;;;22.23;;
27223;SDS011;14965;50.660;13.226;2023-11-22T13:32:09;42.08;;;20.98;;
27223;SDS011;14965;50.660;13.226;2023-11-22T13:34:35;50.47;;;22.98;;
27223;SDS011;14965;50.660;13.226;2023-11-22T13:37:01;47.22;;;21.52;;
27223;SDS011;14965;50.660;13.226;2023-11-22T13:39:27;44.55;;;21.10;;
27223;SDS011;14965;50.660;13.226;2023-11-22T13:41:54;43.65;;;21.45;;
27223;SDS011;14965;50.660;13.226;2023-11-22T13:44:20;42.28;;;22.38;;
27223;SDS011;14965;50.660;13.226;2023-11-22T13:46:46;42.40;;;21.23;;
27223;SDS011;14965;50.660;13.226;2023-11-22T13:49:12;38.85;;;20.15;;
27223;SDS011;14965;50.660;13.226;2023-11-22T13:51:38;47.85;;;22.85;;
27223;SDS011;14965;50.660;13.226;2023-11-22T13:54:04;49.22;;;23.10;;
27223;SDS011;14965;50.660;13.226;2023-11-22T13:56:30;44.22;;;22.35;;
27223;SDS011;14965;50.660;13.226;2023-11-22T13:58:58;42.90;;;21.40;;
27223;SDS011;14965;50.660;13.226;2023-11-22T14:01:23;53.28;;;26.58;;
27223;SDS011;14965;50.660;13.226;2023-11-22T14:03:50;58.95;;;30.55;;
27223;SDS011;14965;50.660;13.226;2023-11-22T14:06:16;51.63;;;25.17;;
27223;SDS011;14965;50.660;13.226;2023-11-22T14:08:42;47.88;;;23.88;;
27223;SDS011;14965;50.660;13.226;2023-11-22T14:11:08;50.50;;;24.38;;